sensor_id;sensor_type;location;lat;lon;timestamp;P1;P2;P0
73565;PMS5003;61846;52.970;-3.168;2023-05-07T00:01:31;13;12;
73565;PMS5003;61846;52.970;-3.168;2023-05-07T00:03:56;12;11;
73565;PMS5003;61846;52.970;-3.168;2023-05-07T00:06:22;13;13;
73565;PMS5003;61846;52.970;-3.168;2023-05-07T00:08:47;11;11;
73565;PMS5003;61846;52.970;-3.168;2023-05-07T00:11:12;11;10;
73565;PMS5003;61846;52.970;-3.168;2023-05-07T00:13:38;12;12;
73565;PMS5003;61846;52.970;-3.168;2023-05-07T00:16:03;13;12;
73565;PMS5003;61846;52.970;-3.168;2023-05-07T00:18:28;20;12;
73565;PMS5003;61846;52.970;-3.168;2023-05-07T00:20:54;15;13;
73565;PMS5003;61846;52.970;-3.168;2023-05-07T00:23:19;14;13;
73565;PMS5003;61846;52.970;-3.168;2023-05-07T00:25:44;11;9;
73565;PMS5003;61846;52.970;-3.168;2023-05-07T00:28:10;13;10;
73565;PMS5003;61846;52.970;-3.168;2023-05-07T00:30:35;14;11;
73565;PMS5003;61846;52.970;-3.168;2023-05-07T00:33:01;11;11;
73565;PMS5003;61846;52.970;-3.168;2023-05-07T00:35:27;12;12;
73565;PMS5003;61846;52.970;-3.168;2023-05-07T00:37:51;12;12;
73565;PMS5003;61846;52.970;-3.168;2023-05-07T00:40:17;10;9;
73565;PMS5003;61846;52.970;-3.168;2023-05-07T00:42:42;12;11;
73565;PMS5003;61846;52.970;-3.168;2023-05-07T00:45:08;8;8;
73565;PMS5003;61846;52.970;-3.168;2023-05-07T00:47:33;10;9;
73565;PMS5003;61846;52.970;-3.168;2023-05-07T00:49:58;9;9;
73565;PMS5003;61846;52.970;-3.168;2023-05-07T00:52:23;15;10;
73565;PMS5003;61846;52.970;-3.168;2023-05-07T00:54:49;9;8;
73565;PMS5003;61846;52.970;-3.168;2023-05-07T00:57:14;11;10;
73565;PMS5003;61846;52.970;-3.168;2023-05-07T00:59:39;8;8;
73565;PMS5003;61846;52.970;-3.168;2023-05-07T01:02:05;11;9;
73565;PMS5003;61846;52.970;-3.168;2023-05-07T01:04:30;8;5;
73565;PMS5003;61846;52.970;-3.168;2023-05-07T01:06:56;7;7;
73565;PMS5003;61846;52.970;-3.168;2023-05-07T01:09:21;6;6;
73565;PMS5003;61846;52.970;-3.168;2023-05-07T01:11:46;7;7;
73565;PMS5003;61846;52.970;-3.168;2023-05-07T01:14:11;6;6;
73565;PMS5003;61846;52.970;-3.168;2023-05-07T01:16:37;4;4;
73565;PMS5003;61846;52.970;-3.168;2023-05-07T01:19:02;5;5;
73565;PMS5003;61846;52.970;-3.168;2023-05-07T01:21:27;8;3;
73565;PMS5003;61846;52.970;-3.168;2023-05-07T01:23:53;7;4;
73565;PMS5003;61846;52.970;-3.168;2023-05-07T01:26:18;6;6;
73565;PMS5003;61846;52.970;-3.168;2023-05-07T01:28:43;6;4;
73565;PMS5003;61846;52.970;-3.168;2023-05-07T01:31:08;5;5;
73565;PMS5003;61846;52.970;-3.168;2023-05-07T01:33:34;4;4;
73565;PMS5003;61846;52.970;-3.168;2023-05-07T01:35:59;3;3;
73565;PMS5003;61846;52.970;-3.168;2023-05-07T01:38:25;5;5;
73565;PMS5003;61846;52.970;-3.168;2023-05-07T01:40:50;9;7;
73565;PMS5003;61846;52.970;-3.168;2023-05-07T01:43:15;5;4;
73565;PMS5003;61846;52.970;-3.168;2023-05-07T01:45:41;6;5;
73565;PMS5003;61846;52.970;-3.168;2023-05-07T01:48:06;5;5;
73565;PMS5003;61846;52.970;-3.168;2023-05-07T01:50:31;6;3;
73565;PMS5003;61846;52.970;-3.168;2023-05-07T01:52:57;6;5;
73565;PMS5003;61846;52.970;-3.168;2023-05-07T01:55:22;6;5;
73565;PMS5003;61846;52.970;-3.168;2023-05-07T01:57:48;10;5;
73565;PMS5003;61846;52.970;-3.168;2023-05-07T02:00:13;4;4;
73565;PMS5003;61846;52.970;-3.168;2023-05-07T02:02:38;6;4;
73565;PMS5003;61846;52.970;-3.168;2023-05-07T02:05:04;9;8;
73565;PMS5003;61846;52.970;-3.168;2023-05-07T02:07:29;6;6;
73565;PMS5003;61846;52.970;-3.168;2023-05-07T02:09:55;4;4;
73565;PMS5003;61846;52.970;-3.168;2023-05-07T02:12:20;5;3;
73565;PMS5003;61846;52.970;-3.168;2023-05-07T02:14:46;5;4;
73565;PMS5003;61846;52.970;-3.168;2023-05-07T02:17:11;3;3;
73565;PMS5003;61846;52.970;-3.168;2023-05-07T02:19:36;5;4;
73565;PMS5003;61846;52.970;-3.168;2023-05-07T02:22:02;6;3;
73565;PMS5003;61846;52.970;-3.168;2023-05-07T02:24:27;6;4;
73565;PMS5003;61846;52.970;-3.168;2023-05-07T02:26:53;4;4;
73565;PMS5003;61846;52.970;-3.168;2023-05-07T02:29:18;4;3;
73565;PMS5003;61846;52.970;-3.168;2023-05-07T02:31:44;6;4;
73565;PMS5003;61846;52.970;-3.168;2023-05-07T02:34:09;5;5;
73565;PMS5003;61846;52.970;-3.168;2023-05-07T02:36:34;9;4;
73565;PMS5003;61846;52.970;-3.168;2023-05-07T02:39:00;5;4;
73565;PMS5003;61846;52.970;-3.168;2023-05-07T02:41:26;4;4;
73565;PMS5003;61846;52.970;-3.168;2023-05-07T02:43:51;4;4;
73565;PMS5003;61846;52.970;-3.168;2023-05-07T02:46:16;6;3;
73565;PMS5003;61846;52.970;-3.168;2023-05-07T02:48:42;5;4;
73565;PMS5003;61846;52.970;-3.168;2023-05-07T02:51:07;4;4;
73565;PMS5003;61846;52.970;-3.168;2023-05-07T02:53:33;9;6;
73565;PMS5003;61846;52.970;-3.168;2023-05-07T02:55:59;8;5;
73565;PMS5003;61846;52.970;-3.168;2023-05-07T02:58:24;6;5;
73565;PMS5003;61846;52.970;-3.168;2023-05-07T03:00:49;6;5;
73565;PMS5003;61846;52.970;-3.168;2023-05-07T03:03:15;4;3;
73565;PMS5003;61846;52.970;-3.168;2023-05-07T03:05:40;9;6;
73565;PMS5003;61846;52.970;-3.168;2023-05-07T03:08:06;5;5;
73565;PMS5003;61846;52.970;-3.168;2023-05-07T03:10:31;8;6;
73565;PMS5003;61846;52.970;-3.168;2023-05-07T03:12:57;9;6;
73565;PMS5003;61846;52.970;-3.168;2023-05-07T03:15:23;5;4;
73565;PMS5003;61846;52.970;-3.168;2023-05-07T03:17:47;7;5;
73565;PMS5003;61846;52.970;-3.168;2023-05-07T03:20:13;5;5;
73565;PMS5003;61846;52.970;-3.168;2023-05-07T03:22:39;7;7;
73565;PMS5003;61846;52.970;-3.168;2023-05-07T03:25:04;4;4;
73565;PMS5003;61846;52.970;-3.168;2023-05-07T03:27:29;6;5;
73565;PMS5003;61846;52.970;-3.168;2023-05-07T03:29:54;5;4;
73565;PMS5003;61846;52.970;-3.168;2023-05-07T03:32:20;4;4;
73565;PMS5003;61846;52.970;-3.168;2023-05-07T03:34:45;3;3;
73565;PMS5003;61846;52.970;-3.168;2023-05-07T03:37:11;4;4;
73565;PMS5003;61846;52.970;-3.168;2023-05-07T03:39:37;5;4;
73565;PMS5003;61846;52.970;-3.168;2023-05-07T03:42:02;4;4;
73565;PMS5003;61846;52.970;-3.168;2023-05-07T03:44:27;8;5;
73565;PMS5003;61846;52.970;-3.168;2023-05-07T03:46:53;7;4;
73565;PMS5003;61846;52.970;-3.168;2023-05-07T03:49:18;6;6;
73565;PMS5003;61846;52.970;-3.168;2023-05-07T03:51:44;4;2;
73565;PMS5003;61846;52.970;-3.168;2023-05-07T03:54:09;4;4;
73565;PMS5003;61846;52.970;-3.168;2023-05-07T03:56:34;4;4;
73565;PMS5003;61846;52.970;-3.168;2023-05-07T03:59:00;3;3;
73565;PMS5003;61846;52.970;-3.168;2023-05-07T04:01:25;6;5;
73565;PMS5003;61846;52.970;-3.168;2023-05-07T04:03:50;12;5;
73565;PMS5003;61846;52.970;-3.168;2023-05-07T04:06:16;5;4;
73565;PMS5003;61846;52.970;-3.168;2023-05-07T04:08:41;6;5;
73565;PMS5003;61846;52.970;-3.168;2023-05-07T04:11:07;3;3;
73565;PMS5003;61846;52.970;-3.168;2023-05-07T04:13:32;4;4;
73565;PMS5003;61846;52.970;-3.168;2023-05-07T04:15:58;2;2;
73565;PMS5003;61846;52.970;-3.168;2023-05-07T04:18:23;4;4;
73565;PMS5003;61846;52.970;-3.168;2023-05-07T04:20:48;4;3;
73565;PMS5003;61846;52.970;-3.168;2023-05-07T04:23:14;8;6;
73565;PMS5003;61846;52.970;-3.168;2023-05-07T04:25:39;8;6;
73565;PMS5003;61846;52.970;-3.168;2023-05-07T04:28:05;11;8;
73565;PMS5003;61846;52.970;-3.168;2023-05-07T04:30:30;5;5;
73565;PMS5003;61846;52.970;-3.168;2023-05-07T04:32:56;6;4;
73565;PMS5003;61846;52.970;-3.168;2023-05-07T04:35:21;6;5;
73565;PMS5003;61846;52.970;-3.168;2023-05-07T04:37:47;6;5;
73565;PMS5003;61846;52.970;-3.168;2023-05-07T04:40:12;8;5;
73565;PMS5003;61846;52.970;-3.168;2023-05-07T04:42:37;9;6;
73565;PMS5003;61846;52.970;-3.168;2023-05-07T04:45:04;8;7;
73565;PMS5003;61846;52.970;-3.168;2023-05-07T04:47:28;3;3;
73565;PMS5003;61846;52.970;-3.168;2023-05-07T04:49:54;4;4;
73565;PMS5003;61846;52.970;-3.168;2023-05-07T04:52:19;5;5;
73565;PMS5003;61846;52.970;-3.168;2023-05-07T04:54:44;7;4;
73565;PMS5003;61846;52.970;-3.168;2023-05-07T04:57:10;6;6;
73565;PMS5003;61846;52.970;-3.168;2023-05-07T04:59:35;7;6;
73565;PMS5003;61846;52.970;-3.168;2023-05-07T05:02:01;4;4;
73565;PMS5003;61846;52.970;-3.168;2023-05-07T05:04:26;10;6;
73565;PMS5003;61846;52.970;-3.168;2023-05-07T05:06:51;15;8;
73565;PMS5003;61846;52.970;-3.168;2023-05-07T05:09:17;9;7;
73565;PMS5003;61846;52.970;-3.168;2023-05-07T05:11:42;7;5;
73565;PMS5003;61846;52.970;-3.168;2023-05-07T05:14:08;5;5;
73565;PMS5003;61846;52.970;-3.168;2023-05-07T05:16:33;8;6;
73565;PMS5003;61846;52.970;-3.168;2023-05-07T05:18:59;7;5;
73565;PMS5003;61846;52.970;-3.168;2023-05-07T05:21:24;6;5;
73565;PMS5003;61846;52.970;-3.168;2023-05-07T05:23:50;4;4;
73565;PMS5003;61846;52.970;-3.168;2023-05-07T05:26:15;8;6;
73565;PMS5003;61846;52.970;-3.168;2023-05-07T05:28:41;9;6;
73565;PMS5003;61846;52.970;-3.168;2023-05-07T05:31:06;5;5;
73565;PMS5003;61846;52.970;-3.168;2023-05-07T05:33:32;7;7;
73565;PMS5003;61846;52.970;-3.168;2023-05-07T05:35:57;4;4;
73565;PMS5003;61846;52.970;-3.168;2023-05-07T05:38:23;8;7;
73565;PMS5003;61846;52.970;-3.168;2023-05-07T05:40:48;4;4;
73565;PMS5003;61846;52.970;-3.168;2023-05-07T05:43:14;7;7;
73565;PMS5003;61846;52.970;-3.168;2023-05-07T05:45:39;4;3;
73565;PMS5003;61846;52.970;-3.168;2023-05-07T05:48:05;7;6;
73565;PMS5003;61846;52.970;-3.168;2023-05-07T05:50:30;7;4;
73565;PMS5003;61846;52.970;-3.168;2023-05-07T05:52:55;7;6;
73565;PMS5003;61846;52.970;-3.168;2023-05-07T05:55:21;5;5;
73565;PMS5003;61846;52.970;-3.168;2023-05-07T05:57:46;7;6;
73565;PMS5003;61846;52.970;-3.168;2023-05-07T06:00:12;6;6;
73565;PMS5003;61846;52.970;-3.168;2023-05-07T06:02:37;5;5;
73565;PMS5003;61846;52.970;-3.168;2023-05-07T06:05:03;4;4;
73565;PMS5003;61846;52.970;-3.168;2023-05-07T06:07:28;5;4;
73565;PMS5003;61846;52.970;-3.168;2023-05-07T06:09:54;6;5;
73565;PMS5003;61846;52.970;-3.168;2023-05-07T06:12:20;13;7;
73565;PMS5003;61846;52.970;-3.168;2023-05-07T06:14:44;3;3;
73565;PMS5003;61846;52.970;-3.168;2023-05-07T06:17:10;9;7;
73565;PMS5003;61846;52.970;-3.168;2023-05-07T06:19:35;41;36;
73565;PMS5003;61846;52.970;-3.168;2023-05-07T06:22:01;10;8;
73565;PMS5003;61846;52.970;-3.168;2023-05-07T06:24:26;9;8;
73565;PMS5003;61846;52.970;-3.168;2023-05-07T06:26:52;5;5;
73565;PMS5003;61846;52.970;-3.168;2023-05-07T06:29:17;6;6;
73565;PMS5003;61846;52.970;-3.168;2023-05-07T06:31:43;6;6;
73565;PMS5003;61846;52.970;-3.168;2023-05-07T06:34:08;5;5;
73565;PMS5003;61846;52.970;-3.168;2023-05-07T06:36:34;7;4;
73565;PMS5003;61846;52.970;-3.168;2023-05-07T06:38:59;9;7;
73565;PMS5003;61846;52.970;-3.168;2023-05-07T06:41:24;7;7;
73565;PMS5003;61846;52.970;-3.168;2023-05-07T06:43:50;5;3;
73565;PMS5003;61846;52.970;-3.168;2023-05-07T06:46:15;5;4;
73565;PMS5003;61846;52.970;-3.168;2023-05-07T06:48:40;10;4;
73565;PMS5003;61846;52.970;-3.168;2023-05-07T06:51:06;5;4;
73565;PMS5003;61846;52.970;-3.168;2023-05-07T06:53:31;5;3;
73565;PMS5003;61846;52.970;-3.168;2023-05-07T06:55:57;3;2;
73565;PMS5003;61846;52.970;-3.168;2023-05-07T06:58:23;8;5;
73565;PMS5003;61846;52.970;-3.168;2023-05-07T07:00:48;3;2;
73565;PMS5003;61846;52.970;-3.168;2023-05-07T07:03:13;3;2;
73565;PMS5003;61846;52.970;-3.168;2023-05-07T07:05:40;5;3;
73565;PMS5003;61846;52.970;-3.168;2023-05-07T07:08:04;2;2;
73565;PMS5003;61846;52.970;-3.168;2023-05-07T07:10:30;6;5;
73565;PMS5003;61846;52.970;-3.168;2023-05-07T07:12:55;5;4;
73565;PMS5003;61846;52.970;-3.168;2023-05-07T07:15:21;5;5;
73565;PMS5003;61846;52.970;-3.168;2023-05-07T07:17:46;7;5;
73565;PMS5003;61846;52.970;-3.168;2023-05-07T07:20:12;2;2;
73565;PMS5003;61846;52.970;-3.168;2023-05-07T07:22:37;4;4;
73565;PMS5003;61846;52.970;-3.168;2023-05-07T07:25:03;3;2;
73565;PMS5003;61846;52.970;-3.168;2023-05-07T07:27:28;2;2;
73565;PMS5003;61846;52.970;-3.168;2023-05-07T07:29:53;4;3;
73565;PMS5003;61846;52.970;-3.168;2023-05-07T07:32:19;3;3;
73565;PMS5003;61846;52.970;-3.168;2023-05-07T07:34:44;3;3;
73565;PMS5003;61846;52.970;-3.168;2023-05-07T07:37:10;3;3;
73565;PMS5003;61846;52.970;-3.168;2023-05-07T07:39:35;2;2;
73565;PMS5003;61846;52.970;-3.168;2023-05-07T07:42:00;2;2;
73565;PMS5003;61846;52.970;-3.168;2023-05-07T07:44:27;3;3;
73565;PMS5003;61846;52.970;-3.168;2023-05-07T07:46:51;3;3;
73565;PMS5003;61846;52.970;-3.168;2023-05-07T07:49:17;6;4;
73565;PMS5003;61846;52.970;-3.168;2023-05-07T07:51:42;5;4;
73565;PMS5003;61846;52.970;-3.168;2023-05-07T07:54:08;3;3;
73565;PMS5003;61846;52.970;-3.168;2023-05-07T07:56:33;5;4;
73565;PMS5003;61846;52.970;-3.168;2023-05-07T07:58:58;4;2;
73565;PMS5003;61846;52.970;-3.168;2023-05-07T08:01:24;2;2;
73565;PMS5003;61846;52.970;-3.168;2023-05-07T08:03:49;5;2;
73565;PMS5003;61846;52.970;-3.168;2023-05-07T08:06:15;4;3;
73565;PMS5003;61846;52.970;-3.168;2023-05-07T08:08:40;4;2;
73565;PMS5003;61846;52.970;-3.168;2023-05-07T08:11:05;7;4;
73565;PMS5003;61846;52.970;-3.168;2023-05-07T08:13:31;7;5;
73565;PMS5003;61846;52.970;-3.168;2023-05-07T08:15:56;4;4;
73565;PMS5003;61846;52.970;-3.168;2023-05-07T08:18:22;8;4;
73565;PMS5003;61846;52.970;-3.168;2023-05-07T08:20:47;4;3;
73565;PMS5003;61846;52.970;-3.168;2023-05-07T08:23:12;5;4;
73565;PMS5003;61846;52.970;-3.168;2023-05-07T08:25:38;4;4;
73565;PMS5003;61846;52.970;-3.168;2023-05-07T08:28:03;4;3;
73565;PMS5003;61846;52.970;-3.168;2023-05-07T08:30:28;4;2;
73565;PMS5003;61846;52.970;-3.168;2023-05-07T08:32:54;3;2;
73565;PMS5003;61846;52.970;-3.168;2023-05-07T08:35:19;4;3;
73565;PMS5003;61846;52.970;-3.168;2023-05-07T08:37:45;0;0;
73565;PMS5003;61846;52.970;-3.168;2023-05-07T08:40:10;2;1;
73565;PMS5003;61846;52.970;-3.168;2023-05-07T08:42:36;4;3;
73565;PMS5003;61846;52.970;-3.168;2023-05-07T08:45:01;5;4;
73565;PMS5003;61846;52.970;-3.168;2023-05-07T08:47:28;3;2;
73565;PMS5003;61846;52.970;-3.168;2023-05-07T08:49:52;4;3;
73565;PMS5003;61846;52.970;-3.168;2023-05-07T08:52:17;3;1;
73565;PMS5003;61846;52.970;-3.168;2023-05-07T08:54:42;3;2;
73565;PMS5003;61846;52.970;-3.168;2023-05-07T08:57:08;3;3;
73565;PMS5003;61846;52.970;-3.168;2023-05-07T08:59:33;6;4;
73565;PMS5003;61846;52.970;-3.168;2023-05-07T09:01:58;1;1;
73565;PMS5003;61846;52.970;-3.168;2023-05-07T09:04:24;0;0;
73565;PMS5003;61846;52.970;-3.168;2023-05-07T09:06:49;1;1;
73565;PMS5003;61846;52.970;-3.168;2023-05-07T09:09:14;1;1;
73565;PMS5003;61846;52.970;-3.168;2023-05-07T09:11:40;5;5;
73565;PMS5003;61846;52.970;-3.168;2023-05-07T09:14:05;4;4;
73565;PMS5003;61846;52.970;-3.168;2023-05-07T09:16:30;2;1;
73565;PMS5003;61846;52.970;-3.168;2023-05-07T09:18:56;3;2;
73565;PMS5003;61846;52.970;-3.168;2023-05-07T09:21:21;2;2;
73565;PMS5003;61846;52.970;-3.168;2023-05-07T09:23:47;3;3;
73565;PMS5003;61846;52.970;-3.168;2023-05-07T09:26:12;2;2;
73565;PMS5003;61846;52.970;-3.168;2023-05-07T09:28:39;2;2;
73565;PMS5003;61846;52.970;-3.168;2023-05-07T09:31:02;1;1;
73565;PMS5003;61846;52.970;-3.168;2023-05-07T09:33:28;3;2;
73565;PMS5003;61846;52.970;-3.168;2023-05-07T09:35:53;2;2;
73565;PMS5003;61846;52.970;-3.168;2023-05-07T09:38:18;1;1;
73565;PMS5003;61846;52.970;-3.168;2023-05-07T09:40:44;3;2;
73565;PMS5003;61846;52.970;-3.168;2023-05-07T09:43:09;1;0;
73565;PMS5003;61846;52.970;-3.168;2023-05-07T09:45:34;2;2;
73565;PMS5003;61846;52.970;-3.168;2023-05-07T09:48:00;1;0;
73565;PMS5003;61846;52.970;-3.168;2023-05-07T09:50:26;2;2;
73565;PMS5003;61846;52.970;-3.168;2023-05-07T09:52:50;1;1;
73565;PMS5003;61846;52.970;-3.168;2023-05-07T09:55:16;1;1;
73565;PMS5003;61846;52.970;-3.168;2023-05-07T09:57:41;0;0;
73565;PMS5003;61846;52.970;-3.168;2023-05-07T10:00:07;4;4;
73565;PMS5003;61846;52.970;-3.168;2023-05-07T10:02:31;4;4;
73565;PMS5003;61846;52.970;-3.168;2023-05-07T10:04:57;6;4;
73565;PMS5003;61846;52.970;-3.168;2023-05-07T10:07:22;6;6;
73565;PMS5003;61846;52.970;-3.168;2023-05-07T10:09:48;3;3;
73565;PMS5003;61846;52.970;-3.168;2023-05-07T10:12:13;1;1;
73565;PMS5003;61846;52.970;-3.168;2023-05-07T10:14:38;4;3;
73565;PMS5003;61846;52.970;-3.168;2023-05-07T10:17:03;2;2;
73565;PMS5003;61846;52.970;-3.168;2023-05-07T10:19:29;1;1;
73565;PMS5003;61846;52.970;-3.168;2023-05-07T10:21:55;2;1;
73565;PMS5003;61846;52.970;-3.168;2023-05-07T10:24:20;1;1;
73565;PMS5003;61846;52.970;-3.168;2023-05-07T10:26:45;3;3;
73565;PMS5003;61846;52.970;-3.168;2023-05-07T10:29:11;6;3;
73565;PMS5003;61846;52.970;-3.168;2023-05-07T10:31:43;5;5;
73565;PMS5003;61846;52.970;-3.168;2023-05-07T10:34:00;3;2;
73565;PMS5003;61846;52.970;-3.168;2023-05-07T10:36:26;2;2;
73565;PMS5003;61846;52.970;-3.168;2023-05-07T10:38:51;2;0;
73565;PMS5003;61846;52.970;-3.168;2023-05-07T10:41:16;3;1;
73565;PMS5003;61846;52.970;-3.168;2023-05-07T10:43:42;1;1;
73565;PMS5003;61846;52.970;-3.168;2023-05-07T10:46:11;1;1;
73565;PMS5003;61846;52.970;-3.168;2023-05-07T10:48:32;1;1;
73565;PMS5003;61846;52.970;-3.168;2023-05-07T10:53:24;1;1;
73565;PMS5003;61846;52.970;-3.168;2023-05-07T10:55:48;3;3;
73565;PMS5003;61846;52.970;-3.168;2023-05-07T11:00:40;7;4;
73565;PMS5003;61846;52.970;-3.168;2023-05-07T11:03:05;1;1;
73565;PMS5003;61846;52.970;-3.168;2023-05-07T11:05:29;2;2;
73565;PMS5003;61846;52.970;-3.168;2023-05-07T11:07:54;1;1;
73565;PMS5003;61846;52.970;-3.168;2023-05-07T11:10:19;1;1;
73565;PMS5003;61846;52.970;-3.168;2023-05-07T11:12:47;2;2;
73565;PMS5003;61846;52.970;-3.168;2023-05-07T11:15:10;3;3;
73565;PMS5003;61846;52.970;-3.168;2023-05-07T11:17:51;2;2;
73565;PMS5003;61846;52.970;-3.168;2023-05-07T11:20:01;6;1;
73565;PMS5003;61846;52.970;-3.168;2023-05-07T11:24:51;1;0;
73565;PMS5003;61846;52.970;-3.168;2023-05-07T11:27:19;2;1;
73565;PMS5003;61846;52.970;-3.168;2023-05-07T11:29:44;8;6;
73565;PMS5003;61846;52.970;-3.168;2023-05-07T11:32:07;6;4;
73565;PMS5003;61846;52.970;-3.168;2023-05-07T11:34:33;5;2;
73565;PMS5003;61846;52.970;-3.168;2023-05-07T11:36:58;4;2;
73565;PMS5003;61846;52.970;-3.168;2023-05-07T11:39:24;2;2;
73565;PMS5003;61846;52.970;-3.168;2023-05-07T11:41:48;1;1;
73565;PMS5003;61846;52.970;-3.168;2023-05-07T11:44:14;5;2;
73565;PMS5003;61846;52.970;-3.168;2023-05-07T11:46:42;5;2;
73565;PMS5003;61846;52.970;-3.168;2023-05-07T11:49:04;2;2;
73565;PMS5003;61846;52.970;-3.168;2023-05-07T11:51:29;2;2;
73565;PMS5003;61846;52.970;-3.168;2023-05-07T11:53:55;5;5;
73565;PMS5003;61846;52.970;-3.168;2023-05-07T11:56:20;5;5;
73565;PMS5003;61846;52.970;-3.168;2023-05-07T11:58:46;4;4;
73565;PMS5003;61846;52.970;-3.168;2023-05-07T12:01:11;3;3;
73565;PMS5003;61846;52.970;-3.168;2023-05-07T12:03:36;9;6;
73565;PMS5003;61846;52.970;-3.168;2023-05-07T12:06:01;2;2;
73565;PMS5003;61846;52.970;-3.168;2023-05-07T12:08:26;2;1;
73565;PMS5003;61846;52.970;-3.168;2023-05-07T12:10:52;4;2;
73565;PMS5003;61846;52.970;-3.168;2023-05-07T12:13:17;8;4;
73565;PMS5003;61846;52.970;-3.168;2023-05-07T12:15:42;3;2;
73565;PMS5003;61846;52.970;-3.168;2023-05-07T12:18:07;4;2;
73565;PMS5003;61846;52.970;-3.168;2023-05-07T12:20:33;8;3;
73565;PMS5003;61846;52.970;-3.168;2023-05-07T12:22:58;4;4;
73565;PMS5003;61846;52.970;-3.168;2023-05-07T12:25:23;5;3;
73565;PMS5003;61846;52.970;-3.168;2023-05-07T12:27:51;2;2;
73565;PMS5003;61846;52.970;-3.168;2023-05-07T12:30:14;4;4;
73565;PMS5003;61846;52.970;-3.168;2023-05-07T12:32:39;12;7;
73565;PMS5003;61846;52.970;-3.168;2023-05-07T12:35:05;2;2;
73565;PMS5003;61846;52.970;-3.168;2023-05-07T12:37:30;4;2;
73565;PMS5003;61846;52.970;-3.168;2023-05-07T12:40:04;6;6;
73565;PMS5003;61846;52.970;-3.168;2023-05-07T12:42:21;2;2;
73565;PMS5003;61846;52.970;-3.168;2023-05-07T12:44:46;3;3;
73565;PMS5003;61846;52.970;-3.168;2023-05-07T12:47:11;5;5;
73565;PMS5003;61846;52.970;-3.168;2023-05-07T12:49:37;6;5;
73565;PMS5003;61846;52.970;-3.168;2023-05-07T12:52:02;6;5;
73565;PMS5003;61846;52.970;-3.168;2023-05-07T12:54:27;4;4;
73565;PMS5003;61846;52.970;-3.168;2023-05-07T12:59:18;2;2;
73565;PMS5003;61846;52.970;-3.168;2023-05-07T13:01:43;6;3;
73565;PMS5003;61846;52.970;-3.168;2023-05-07T13:04:08;2;2;
73565;PMS5003;61846;52.970;-3.168;2023-05-07T13:06:33;4;3;
73565;PMS5003;61846;52.970;-3.168;2023-05-07T13:08:59;4;3;
73565;PMS5003;61846;52.970;-3.168;2023-05-07T13:11:24;5;4;
73565;PMS5003;61846;52.970;-3.168;2023-05-07T13:13:49;5;3;
73565;PMS5003;61846;52.970;-3.168;2023-05-07T13:16:15;3;3;
73565;PMS5003;61846;52.970;-3.168;2023-05-07T13:18:40;8;6;
73565;PMS5003;61846;52.970;-3.168;2023-05-07T13:21:05;3;3;
73565;PMS5003;61846;52.970;-3.168;2023-05-07T13:23:31;2;2;
73565;PMS5003;61846;52.970;-3.168;2023-05-07T13:25:56;6;5;
73565;PMS5003;61846;52.970;-3.168;2023-05-07T13:28:21;3;3;
73565;PMS5003;61846;52.970;-3.168;2023-05-07T13:30:46;3;3;
73565;PMS5003;61846;52.970;-3.168;2023-05-07T13:33:12;5;4;
73565;PMS5003;61846;52.970;-3.168;2023-05-07T13:35:37;4;4;
73565;PMS5003;61846;52.970;-3.168;2023-05-07T13:38:02;2;2;
73565;PMS5003;61846;52.970;-3.168;2023-05-07T13:40:28;4;2;
73565;PMS5003;61846;52.970;-3.168;2023-05-07T13:42:53;1;0;
73565;PMS5003;61846;52.970;-3.168;2023-05-07T13:45:18;2;2;
73565;PMS5003;61846;52.970;-3.168;2023-05-07T13:47:43;4;2;
73565;PMS5003;61846;52.970;-3.168;2023-05-07T13:50:09;2;2;
73565;PMS5003;61846;52.970;-3.168;2023-05-07T13:52:34;3;1;
73565;PMS5003;61846;52.970;-3.168;2023-05-07T13:54:59;5;3;
73565;PMS5003;61846;52.970;-3.168;2023-05-07T13:57:25;2;2;
73565;PMS5003;61846;52.970;-3.168;2023-05-07T13:59:50;4;3;
73565;PMS5003;61846;52.970;-3.168;2023-05-07T14:02:15;3;2;
73565;PMS5003;61846;52.970;-3.168;2023-05-07T14:04:40;4;3;
73565;PMS5003;61846;52.970;-3.168;2023-05-07T14:07:06;7;5;
73565;PMS5003;61846;52.970;-3.168;2023-05-07T14:09:31;3;3;
73565;PMS5003;61846;52.970;-3.168;2023-05-07T14:11:56;6;6;
73565;PMS5003;61846;52.970;-3.168;2023-05-07T14:14:22;5;3;
73565;PMS5003;61846;52.970;-3.168;2023-05-07T14:16:47;5;4;
73565;PMS5003;61846;52.970;-3.168;2023-05-07T14:19:12;5;3;
73565;PMS5003;61846;52.970;-3.168;2023-05-07T14:21:37;9;6;
73565;PMS5003;61846;52.970;-3.168;2023-05-07T14:24:03;7;4;
73565;PMS5003;61846;52.970;-3.168;2023-05-07T14:26:28;1;1;
73565;PMS5003;61846;52.970;-3.168;2023-05-07T14:28:53;2;2;
73565;PMS5003;61846;52.970;-3.168;2023-05-07T14:31:18;4;4;
73565;PMS5003;61846;52.970;-3.168;2023-05-07T14:33:44;3;3;
73565;PMS5003;61846;52.970;-3.168;2023-05-07T14:36:09;3;3;
73565;PMS5003;61846;52.970;-3.168;2023-05-07T14:38:34;8;7;
73565;PMS5003;61846;52.970;-3.168;2023-05-07T14:41:00;1;1;
73565;PMS5003;61846;52.970;-3.168;2023-05-07T14:43:25;2;2;
73565;PMS5003;61846;52.970;-3.168;2023-05-07T14:45:50;2;2;
73565;PMS5003;61846;52.970;-3.168;2023-05-07T14:48:15;2;2;
73565;PMS5003;61846;52.970;-3.168;2023-05-07T14:50:40;4;3;
73565;PMS5003;61846;52.970;-3.168;2023-05-07T14:53:06;2;2;
73565;PMS5003;61846;52.970;-3.168;2023-05-07T14:55:31;4;2;
73565;PMS5003;61846;52.970;-3.168;2023-05-07T14:57:56;3;1;
73565;PMS5003;61846;52.970;-3.168;2023-05-07T15:00:22;1;1;
73565;PMS5003;61846;52.970;-3.168;2023-05-07T15:02:47;4;2;
73565;PMS5003;61846;52.970;-3.168;2023-05-07T15:05:12;3;3;
73565;PMS5003;61846;52.970;-3.168;2023-05-07T15:07:37;2;2;
73565;PMS5003;61846;52.970;-3.168;2023-05-07T15:10:03;4;3;
73565;PMS5003;61846;52.970;-3.168;2023-05-07T15:12:28;2;1;
73565;PMS5003;61846;52.970;-3.168;2023-05-07T15:14:53;1;1;
73565;PMS5003;61846;52.970;-3.168;2023-05-07T15:17:18;3;3;
73565;PMS5003;61846;52.970;-3.168;2023-05-07T15:19:44;2;2;
73565;PMS5003;61846;52.970;-3.168;2023-05-07T15:22:10;4;2;
73565;PMS5003;61846;52.970;-3.168;2023-05-07T15:24:35;2;2;
73565;PMS5003;61846;52.970;-3.168;2023-05-07T15:27:00;2;2;
73565;PMS5003;61846;52.970;-3.168;2023-05-07T15:29:25;0;0;
73565;PMS5003;61846;52.970;-3.168;2023-05-07T15:31:51;2;1;
73565;PMS5003;61846;52.970;-3.168;2023-05-07T15:34:16;7;3;
73565;PMS5003;61846;52.970;-3.168;2023-05-07T15:36:42;1;1;
73565;PMS5003;61846;52.970;-3.168;2023-05-07T15:39:07;1;1;
73565;PMS5003;61846;52.970;-3.168;2023-05-07T15:41:32;2;2;
73565;PMS5003;61846;52.970;-3.168;2023-05-07T15:43:57;1;1;
73565;PMS5003;61846;52.970;-3.168;2023-05-07T15:46:23;3;1;
73565;PMS5003;61846;52.970;-3.168;2023-05-07T15:48:48;2;2;
73565;PMS5003;61846;52.970;-3.168;2023-05-07T15:51:13;2;2;
73565;PMS5003;61846;52.970;-3.168;2023-05-07T15:53:38;2;2;
73565;PMS5003;61846;52.970;-3.168;2023-05-07T15:56:04;1;1;
73565;PMS5003;61846;52.970;-3.168;2023-05-07T15:58:29;3;2;
73565;PMS5003;61846;52.970;-3.168;2023-05-07T16:00:54;2;2;
73565;PMS5003;61846;52.970;-3.168;2023-05-07T16:03:20;1;1;
73565;PMS5003;61846;52.970;-3.168;2023-05-07T16:05:45;4;4;
73565;PMS5003;61846;52.970;-3.168;2023-05-07T16:08:10;3;3;
73565;PMS5003;61846;52.970;-3.168;2023-05-07T16:10:35;5;2;
73565;PMS5003;61846;52.970;-3.168;2023-05-07T16:13:01;4;4;
73565;PMS5003;61846;52.970;-3.168;2023-05-07T16:15:26;6;4;
73565;PMS5003;61846;52.970;-3.168;2023-05-07T16:17:51;2;1;
73565;PMS5003;61846;52.970;-3.168;2023-05-07T16:20:17;3;3;
73565;PMS5003;61846;52.970;-3.168;2023-05-07T16:22:42;8;6;
73565;PMS5003;61846;52.970;-3.168;2023-05-07T16:25:08;6;4;
73565;PMS5003;61846;52.970;-3.168;2023-05-07T16:27:32;9;9;